VEGT/GAU METAR and TAF weather

Enter ICAO airport designator
Station Type Date Time Source
VEGT METAR 2021/02/25 16:30 UTC NOAA

VEGT 251630Z 00000KT 1800 BR SCT018 BKN100 18/17 Q1008 NOSIG


Station Type Date Time Source
VEGT Decoded METAR 2021/02/25 16:30 UTC NOAA

Gauhati, India (VEGT) 26-06N 091-35E 54M
Feb 25, 2021 - 11:30 AM EST / 2021.02.25 1630 UTC
Wind: Calm:0
Visibility: 1 mile(s):0
Sky conditions: mostly cloudy
Weather: mist
Temperature: 64 F (18 C)
Dew Point: 62 F (17 C)
Relative Humidity: 93%
Pressure (altimeter): 29.77 in. Hg (1008 hPa)
ob: VEGT 251630Z 00000KT 1800 BR SCT018 BKN100 18/17 Q1008 NOSIG
cycle: 16

Station Type Date Time Source
VEGT TAF 2020/12/17 12:52 UTC NOAA

TAF VEGT 171100Z 1712/1818 03005KT 2000 BR SCT018 BKN100
BECMG 1713/1715 00000KT 1500 BR
BECMG 1800/1802 0800 FG FEW008
BECMG 1803/1805 03004KT 2000 BR SCT018 BKN100
BECMG 1806/1808 34008KT 3000 HZ FEW020
BECMG 1813/1815 00000KT 2000 BR FEW018 SCT100

Example: see airport list